Stallion Springs, California
Current Conditions -  °F | °C
As of 6:35 AM on Friday 31 Oct 2014 (Local Time) from KTSP Reporting Station
Clear Clear  
Wind Chill: 35°   Ceiling: Unl
Heat Index: 39°   Visibility: 10mi
Dew Point: 23°   Wind: 6mph
Humidity: 52%   Direction: 120°ESE
Pressure: 29.98"   Gusts: NA
Location:  35.1338°N, 118.552°W
Report Text: KTSP 311335Z AUTO 12005KT 10SM CLR 04/M05 A2998 RMK AO2
Loading
Personal Weather Stations






























Interactive Weather Map New forecast layout! Learn more

10-Day Weather Forecast

Advertisements
Track Severe Weather on mobile